createdAt,value
2023-05-03T00:00:03.179Z,8.40
2023-05-03T00:01:03.379Z,8.40
2023-05-03T00:02:03.014Z,8.40
2023-05-03T00:03:02.727Z,8.40
2023-05-03T00:04:03.369Z,8.40
2023-05-03T00:05:02.902Z,8.40
2023-05-03T00:06:03.169Z,8.40
2023-05-03T00:07:02.806Z,8.40
2023-05-03T00:08:03.452Z,8.40
2023-05-03T00:09:03.433Z,8.40
2023-05-03T00:10:03.554Z,8.40
2023-05-03T00:11:02.914Z,8.40
2023-05-03T00:12:03.486Z,8.40
2023-05-03T00:13:03.025Z,8.40
2023-05-03T00:14:03.145Z,8.40
2023-05-03T00:15:03.051Z,8.40
2023-05-03T00:16:03.324Z,8.40
2023-05-03T00:17:02.898Z,8.40
2023-05-03T00:18:03.487Z,8.40
2023-05-03T00:19:03.021Z,8.40
2023-05-03T00:20:03.801Z,8.40
2023-05-03T00:21:03.457Z,8.40
2023-05-03T00:22:03.012Z,8.40
2023-05-03T00:23:02.899Z,8.40
2023-05-03T00:24:03.433Z,8.40
2023-05-03T00:25:03.416Z,8.40
2023-05-03T00:26:02.848Z,8.40
2023-05-03T00:27:02.939Z,8.40
2023-05-03T00:28:03.041Z,8.40
2023-05-03T00:29:02.678Z,8.40
2023-05-03T00:30:03.760Z,8.40
2023-05-03T00:31:03.499Z,8.40
2023-05-03T00:32:02.694Z,8.40
2023-05-03T00:33:03.358Z,8.40
2023-05-03T00:34:03.122Z,8.40
2023-05-03T00:35:03.593Z,8.40
2023-05-03T00:36:02.703Z,8.40
2023-05-03T00:37:03.600Z,8.40
2023-05-03T00:38:02.737Z,8.30
2023-05-03T00:39:02.689Z,8.30
2023-05-03T00:40:03.451Z,8.30
2023-05-03T00:41:02.679Z,8.30
2023-05-03T00:42:03.557Z,8.30
2023-05-03T00:43:03.342Z,8.30
2023-05-03T00:44:03.254Z,8.30
2023-05-03T00:45:02.962Z,8.30
2023-05-03T00:46:12.829Z,8.30
2023-05-03T00:47:03.319Z,8.20
2023-05-03T00:48:03.404Z,8.30
2023-05-03T00:49:02.928Z,8.30
2023-05-03T00:50:03.684Z,8.30
2023-05-03T00:51:03.081Z,8.30
2023-05-03T00:52:02.987Z,8.30
2023-05-03T00:53:03.095Z,8.30
2023-05-03T00:54:03.664Z,8.30
2023-05-03T00:55:03.175Z,8.30
2023-05-03T00:56:02.694Z,8.30
2023-05-03T00:57:02.819Z,8.30
2023-05-03T00:58:02.809Z,8.30
2023-05-03T00:59:03.416Z,8.30
2023-05-03T01:00:03.167Z,8.20
2023-05-03T01:01:03.294Z,8.20
2023-05-03T01:02:02.909Z,8.20
2023-05-03T01:03:03.715Z,8.20
2023-05-03T01:04:03.126Z,8.20
2023-05-03T01:05:02.698Z,8.20
2023-05-03T01:06:02.904Z,8.20
2023-05-03T01:07:02.837Z,8.20
2023-05-03T01:08:03.410Z,8.20
2023-05-03T01:09:03.333Z,8.20
2023-05-03T01:10:03.300Z,8.20
2023-05-03T01:11:02.914Z,8.20
2023-05-03T01:12:02.935Z,8.20
2023-05-03T01:13:03.431Z,8.20
2023-05-03T01:14:02.818Z,8.20
2023-05-03T01:15:02.814Z,8.20
2023-05-03T01:16:02.840Z,8.10
2023-05-03T01:17:03.015Z,8.10
2023-05-03T01:18:03.023Z,8.10
2023-05-03T01:19:03.582Z,8.10
2023-05-03T01:20:03.673Z,8.10
2023-05-03T01:21:03.302Z,8.10
2023-05-03T01:22:02.861Z,8.00
2023-05-03T01:23:03.344Z,8.00
2023-05-03T01:24:02.873Z,8.00
2023-05-03T01:25:03.086Z,8.00
2023-05-03T01:26:02.627Z,8.00
2023-05-03T01:27:03.305Z,8.00
2023-05-03T01:28:03.220Z,8.00
2023-05-03T01:29:03.304Z,8.00
2023-05-03T01:30:03.395Z,8.00
2023-05-03T01:31:02.619Z,8.00
2023-05-03T01:32:02.886Z,8.00
2023-05-03T01:33:03.611Z,8.10
2023-05-03T01:34:03.429Z,8.10
2023-05-03T01:35:03.376Z,8.10
2023-05-03T01:36:02.929Z,8.10
2023-05-03T01:37:03.500Z,8.10
2023-05-03T01:38:03.007Z,8.10
2023-05-03T01:39:02.906Z,8.10
2023-05-03T01:40:03.705Z,8.10
2023-05-03T01:41:03.165Z,8.10
2023-05-03T01:42:03.276Z,8.10
2023-05-03T01:43:03.258Z,8.10
2023-05-03T01:44:02.834Z,8.10
2023-05-03T01:45:03.402Z,8.10
2023-05-03T01:46:03.079Z,8.10
2023-05-03T01:47:02.964Z,8.10
2023-05-03T01:48:03.646Z,8.10
2023-05-03T01:49:02.827Z,8.10
2023-05-03T01:50:03.015Z,8.10
2023-05-03T01:51:02.741Z,8.00
2023-05-03T01:52:03.369Z,8.00
2023-05-03T01:53:03.321Z,8.00
2023-05-03T01:54:02.863Z,8.00
2023-05-03T01:55:03.346Z,8.00
2023-05-03T01:56:02.854Z,8.00
2023-05-03T01:57:02.941Z,8.00
2023-05-03T01:58:03.339Z,8.10
2023-05-03T01:59:02.840Z,8.10
2023-05-03T02:00:03.616Z,8.10
2023-05-03T02:01:03.087Z,8.10
2023-05-03T02:02:02.748Z,8.10
2023-05-03T02:03:03.398Z,8.10
2023-05-03T02:04:03.137Z,8.10
2023-05-03T02:05:02.770Z,8.10
2023-05-03T02:06:02.834Z,8.10
2023-05-03T02:07:02.781Z,8.10
2023-05-03T02:08:03.310Z,8.10
2023-05-03T02:09:03.509Z,8.10
2023-05-03T02:10:03.576Z,8.10
2023-05-03T02:11:03.274Z,8.00
2023-05-03T02:12:02.888Z,8.00
2023-05-03T02:13:02.824Z,8.10
2023-05-03T02:14:03.449Z,8.00
2023-05-03T02:15:02.940Z,8.10
2023-05-03T02:16:02.827Z,8.10
2023-05-03T02:17:02.979Z,8.10
2023-05-03T02:18:02.863Z,8.00
2023-05-03T02:19:03.397Z,8.00
2023-05-03T02:20:03.299Z,8.00
2023-05-03T02:21:02.963Z,8.00
2023-05-03T02:22:03.518Z,8.00
2023-05-03T02:23:03.155Z,8.00
2023-05-03T02:24:02.731Z,8.00
2023-05-03T02:25:03.370Z,8.00
2023-05-03T02:26:02.864Z,8.00
2023-05-03T02:27:03.402Z,8.00
2023-05-03T02:28:02.895Z,7.90
2023-05-03T02:29:03.503Z,7.90
2023-05-03T02:30:03.140Z,7.90
2023-05-03T02:31:03.623Z,7.90
2023-05-03T02:32:03.244Z,7.90
2023-05-03T02:33:03.435Z,7.90
2023-05-03T02:34:03.078Z,7.90
2023-05-03T02:35:02.659Z,7.80
2023-05-03T02:36:03.655Z,7.80
2023-05-03T02:37:02.762Z,7.80
2023-05-03T02:38:03.251Z,7.80
2023-05-03T02:39:02.830Z,7.80
2023-05-03T02:40:02.870Z,7.80
2023-05-03T02:41:02.974Z,7.80
2023-05-03T02:42:03.526Z,7.80
2023-05-03T02:43:03.031Z,7.70
2023-05-03T02:44:03.225Z,7.70
2023-05-03T02:45:03.154Z,7.70
2023-05-03T02:46:02.778Z,7.70
2023-05-03T02:47:03.342Z,7.70
2023-05-03T02:48:02.915Z,7.70
2023-05-03T02:49:02.637Z,7.70
2023-05-03T02:50:03.565Z,7.60
2023-05-03T02:51:02.965Z,7.60
2023-05-03T02:52:03.506Z,7.60
2023-05-03T02:53:03.483Z,7.60
2023-05-03T02:54:03.169Z,7.60
2023-05-03T02:55:02.722Z,7.60
2023-05-03T02:56:03.364Z,7.60
2023-05-03T02:57:02.842Z,7.50
2023-05-03T02:58:02.856Z,7.50
2023-05-03T02:59:02.798Z,7.50
2023-05-03T03:00:02.809Z,7.50
2023-05-03T03:01:03.468Z,7.50
2023-05-03T03:02:03.128Z,7.50
2023-05-03T03:03:03.263Z,7.50
2023-05-03T03:04:03.094Z,7.50
2023-05-03T03:05:03.442Z,7.50
2023-05-03T03:06:03.102Z,7.40
2023-05-03T03:07:02.605Z,7.40
2023-05-03T03:08:03.176Z,7.40
2023-05-03T03:09:03.152Z,7.40
2023-05-03T03:10:03.850Z,7.40
2023-05-03T03:11:02.832Z,7.40
2023-05-03T03:12:02.895Z,7.40
2023-05-03T03:13:02.736Z,7.40
2023-05-03T03:14:03.261Z,7.30
2023-05-03T03:15:03.010Z,7.30
2023-05-03T03:16:03.462Z,7.30
2023-05-03T03:17:03.466Z,7.30
2023-05-03T03:18:03.414Z,7.30
2023-05-03T03:19:03.003Z,7.30
2023-05-03T03:20:03.057Z,7.30
2023-05-03T03:21:02.874Z,7.30
2023-05-03T03:22:03.353Z,7.30
2023-05-03T03:23:03.182Z,7.30
2023-05-03T03:24:02.731Z,7.30
2023-05-03T03:25:03.376Z,7.30
2023-05-03T03:26:03.287Z,7.30
2023-05-03T03:27:03.180Z,7.20
2023-05-03T03:28:02.708Z,7.20
2023-05-03T03:29:03.248Z,7.20
2023-05-03T03:30:03.341Z,7.20
2023-05-03T03:31:03.461Z,7.20
2023-05-03T03:32:03.373Z,7.20
2023-05-03T03:33:02.932Z,7.20
2023-05-03T03:34:02.856Z,7.20
2023-05-03T03:35:03.283Z,7.20
2023-05-03T03:36:02.919Z,7.10
2023-05-03T03:37:02.946Z,7.10
2023-05-03T03:38:03.570Z,7.10
2023-05-03T03:39:03.642Z,7.10
2023-05-03T03:40:03.428Z,7.10
2023-05-03T03:41:02.641Z,7.10
2023-05-03T03:42:03.354Z,7.10
2023-05-03T03:43:02.839Z,7.10
2023-05-03T03:44:02.780Z,7.10
2023-05-03T03:45:03.358Z,7.00
2023-05-03T03:46:02.949Z,7.00
2023-05-03T03:47:03.517Z,7.00
2023-05-03T03:48:03.528Z,7.00
2023-05-03T03:49:03.123Z,7.00
2023-05-03T03:50:02.809Z,7.00
2023-05-03T03:51:03.371Z,7.00
2023-05-03T03:52:02.885Z,6.90
2023-05-03T03:53:02.827Z,6.90
2023-05-03T03:54:02.751Z,6.90
2023-05-03T03:55:02.846Z,6.90
2023-05-03T03:56:02.968Z,6.90
2023-05-03T03:57:02.800Z,6.90
2023-05-03T03:58:02.827Z,6.90
2023-05-03T03:59:02.724Z,6.90
2023-05-03T04:00:03.556Z,6.80
2023-05-03T04:01:03.008Z,6.80
2023-05-03T04:02:03.174Z,6.80
2023-05-03T04:03:03.569Z,6.80
2023-05-03T04:04:02.802Z,6.80
2023-05-03T04:05:02.905Z,6.80
2023-05-03T04:06:03.539Z,6.80
2023-05-03T04:07:03.282Z,6.80
2023-05-03T04:08:02.907Z,6.70
2023-05-03T04:09:03.487Z,6.70
2023-05-03T04:10:03.738Z,6.70
2023-05-03T04:11:03.696Z,6.70
2023-05-03T04:12:03.044Z,6.70
2023-05-03T04:13:02.790Z,6.70
2023-05-03T04:14:03.406Z,6.70
2023-05-03T04:15:03.447Z,6.70
2023-05-03T04:16:04.536Z,6.60
2023-05-03T04:17:03.002Z,6.60
2023-05-03T04:18:03.613Z,6.60
2023-05-03T04:19:03.260Z,6.60
2023-05-03T04:20:03.048Z,6.60
2023-05-03T04:21:03.163Z,6.60
2023-05-03T04:22:03.012Z,6.60
2023-05-03T04:23:03.560Z,6.60
2023-05-03T04:24:03.253Z,6.60
2023-05-03T04:25:02.968Z,6.60
2023-05-03T04:26:04.798Z,6.60
2023-05-03T04:27:03.259Z,6.60
2023-05-03T04:28:02.968Z,6.60
2023-05-03T04:29:03.512Z,6.60
2023-05-03T04:30:03.592Z,6.60
2023-05-03T04:31:02.657Z,6.70
2023-05-03T04:32:03.193Z,6.70
2023-05-03T04:33:03.125Z,6.70
2023-05-03T04:34:02.985Z,6.70
2023-05-03T04:35:03.462Z,6.80
2023-05-03T04:36:03.410Z,6.80
2023-05-03T04:37:03.621Z,6.80
2023-05-03T04:38:03.265Z,6.80
2023-05-03T04:39:03.279Z,6.80
2023-05-03T04:40:02.945Z,6.90
2023-05-03T04:41:03.158Z,6.90
2023-05-03T04:42:03.105Z,6.90
2023-05-03T04:43:03.220Z,6.90
2023-05-03T04:44:02.790Z,7.00
2023-05-03T04:45:02.951Z,7.00
2023-05-03T04:46:03.081Z,7.00
2023-05-03T04:47:03.051Z,7.00
2023-05-03T04:48:03.114Z,7.00
2023-05-03T04:49:03.613Z,7.10
2023-05-03T04:50:03.284Z,7.10
2023-05-03T04:51:03.157Z,7.10
2023-05-03T04:52:03.250Z,7.20
2023-05-03T04:53:03.174Z,7.20
2023-05-03T04:54:03.206Z,7.20
2023-05-03T04:55:02.958Z,7.20
2023-05-03T04:56:03.458Z,7.30
2023-05-03T04:57:03.353Z,7.30
2023-05-03T04:58:03.774Z,7.30
2023-05-03T04:59:02.767Z,7.30
2023-05-03T05:00:03.517Z,7.40
2023-05-03T05:01:03.027Z,7.40
2023-05-03T05:02:03.120Z,7.40
2023-05-03T05:03:03.294Z,7.50
2023-05-03T05:04:03.691Z,7.50
2023-05-03T05:05:03.195Z,7.50
2023-05-03T05:06:02.882Z,7.50
2023-05-03T05:07:03.066Z,7.60
2023-05-03T05:08:03.549Z,7.60
2023-05-03T05:09:03.183Z,7.60
2023-05-03T05:10:02.901Z,7.60
2023-05-03T05:11:03.124Z,7.70
2023-05-03T05:12:02.627Z,7.70
2023-05-03T05:13:02.703Z,7.70
2023-05-03T05:14:02.647Z,7.70
2023-05-03T05:15:03.154Z,7.80
2023-05-03T05:16:02.990Z,7.80
2023-05-03T05:17:03.130Z,7.90
2023-05-03T05:18:02.754Z,7.90
2023-05-03T05:19:02.696Z,7.90
2023-05-03T05:20:03.387Z,8.00
2023-05-03T05:21:02.699Z,8.00
2023-05-03T05:22:03.270Z,8.00
2023-05-03T05:23:02.780Z,8.10
2023-05-03T05:24:03.476Z,8.20
2023-05-03T05:25:03.187Z,8.20
2023-05-03T05:26:03.060Z,8.30
2023-05-03T05:27:03.639Z,8.40
2023-05-03T05:28:03.147Z,8.50
2023-05-03T05:29:02.801Z,8.60
2023-05-03T05:30:03.605Z,8.70
2023-05-03T05:31:02.749Z,8.80
2023-05-03T05:32:03.018Z,8.90
2023-05-03T05:33:03.377Z,9.00
2023-05-03T05:34:03.009Z,9.20
2023-05-03T05:35:02.725Z,9.40
2023-05-03T05:36:03.287Z,9.60
2023-05-03T05:37:03.245Z,9.70
2023-05-03T05:38:02.859Z,9.80
2023-05-03T05:39:02.828Z,9.80
2023-05-03T05:40:03.519Z,9.90
2023-05-03T05:41:03.998Z,10.00
2023-05-03T05:42:03.051Z,10.00
2023-05-03T05:43:03.485Z,10.10
2023-05-03T05:44:03.132Z,10.20
2023-05-03T05:45:02.813Z,10.20
2023-05-03T05:46:03.437Z,10.30
2023-05-03T05:47:02.940Z,10.30
2023-05-03T05:48:03.631Z,10.40
2023-05-03T05:49:03.400Z,10.50
2023-05-03T05:50:04.510Z,10.60
2023-05-03T05:51:02.887Z,10.60
2023-05-03T05:52:02.979Z,10.60
2023-05-03T05:53:03.120Z,10.60
2023-05-03T05:54:02.951Z,10.70
2023-05-03T05:55:03.642Z,10.70
2023-05-03T05:56:02.844Z,10.60
2023-05-03T05:57:02.779Z,10.70
2023-05-03T05:58:03.337Z,10.70
2023-05-03T05:59:03.368Z,10.70
2023-05-03T06:00:03.233Z,10.80
2023-05-03T06:01:03.516Z,10.80
2023-05-03T06:02:03.112Z,10.80
2023-05-03T06:03:03.033Z,10.90
2023-05-03T06:04:02.724Z,10.90
2023-05-03T06:05:03.971Z,11.00
2023-05-03T06:06:02.795Z,11.10
2023-05-03T06:07:03.504Z,11.10
2023-05-03T06:08:03.140Z,11.20
2023-05-03T06:09:06.995Z,11.30
2023-05-03T06:10:03.045Z,11.40
2023-05-03T06:11:03.442Z,11.40
2023-05-03T06:12:03.090Z,11.50
2023-05-03T06:13:02.653Z,11.60
2023-05-03T06:14:02.688Z,11.70
2023-05-03T06:15:03.473Z,11.80
2023-05-03T06:16:02.722Z,11.80
2023-05-03T06:17:02.799Z,11.80
2023-05-03T06:18:03.553Z,11.90
2023-05-03T06:19:03.284Z,11.90
2023-05-03T06:20:03.164Z,11.90
2023-05-03T06:21:02.781Z,11.90
2023-05-03T06:22:03.454Z,12.00
2023-05-03T06:23:02.956Z,12.10
2023-05-03T06:24:03.186Z,12.10
2023-05-03T06:25:02.717Z,12.20
2023-05-03T06:26:03.596Z,12.40
2023-05-03T06:27:03.106Z,12.50
2023-05-03T06:28:03.125Z,12.60
2023-05-03T06:29:03.438Z,12.70
2023-05-03T06:30:03.256Z,12.80
2023-05-03T06:31:03.013Z,12.90
2023-05-03T06:32:02.693Z,12.90
2023-05-03T06:33:03.235Z,13.00
2023-05-03T06:34:03.309Z,13.10
2023-05-03T06:35:02.905Z,13.20
2023-05-03T06:36:03.471Z,13.30
2023-05-03T06:37:03.756Z,13.30
2023-05-03T06:38:03.261Z,13.30
2023-05-03T06:39:02.711Z,13.30
2023-05-03T06:40:02.912Z,13.30
2023-05-03T06:41:03.099Z,13.30
2023-05-03T06:42:03.577Z,13.30
2023-05-03T06:43:02.697Z,13.30
2023-05-03T06:44:03.176Z,13.30
2023-05-03T06:45:02.803Z,13.40
2023-05-03T06:46:02.767Z,13.30
2023-05-03T06:47:03.551Z,13.30
2023-05-03T06:48:02.769Z,13.40
2023-05-03T06:49:02.951Z,13.40
2023-05-03T06:50:03.777Z,13.40
2023-05-03T06:51:03.306Z,13.40
2023-05-03T06:52:02.821Z,13.40
2023-05-03T06:53:02.872Z,13.40
2023-05-03T06:54:02.894Z,13.40
2023-05-03T06:55:03.498Z,13.40
2023-05-03T06:56:03.154Z,13.40
2023-05-03T06:57:03.272Z,13.40
2023-05-03T06:58:03.311Z,13.40
2023-05-03T06:59:02.810Z,13.40
2023-05-03T07:00:03.562Z,13.50
2023-05-03T07:01:02.742Z,13.40
2023-05-03T07:02:02.734Z,13.40
2023-05-03T07:03:03.132Z,13.40
2023-05-03T07:04:03.446Z,13.40
2023-05-03T07:05:03.129Z,13.40
2023-05-03T07:06:02.673Z,13.40
2023-05-03T07:07:03.389Z,13.40
2023-05-03T07:08:03.204Z,13.40
2023-05-03T07:09:03.234Z,13.40
2023-05-03T07:10:03.223Z,13.40
2023-05-03T07:11:03.656Z,13.30
2023-05-03T07:12:02.634Z,13.30
2023-05-03T07:13:03.148Z,13.30
2023-05-03T07:14:03.170Z,13.20
2023-05-03T07:15:02.988Z,13.20
2023-05-03T07:16:03.854Z,13.20
2023-05-03T07:17:03.426Z,13.20
2023-05-03T07:18:02.911Z,13.10
2023-05-03T07:19:03.582Z,13.10
2023-05-03T07:20:03.396Z,13.10
2023-05-03T07:21:03.317Z,13.10
2023-05-03T07:22:03.248Z,13.10
2023-05-03T07:23:02.900Z,13.00
2023-05-03T07:24:03.288Z,13.00
2023-05-03T07:25:02.906Z,12.90
2023-05-03T07:26:02.681Z,12.80
2023-05-03T07:27:03.443Z,12.70
2023-05-03T07:28:02.890Z,12.70
2023-05-03T07:29:03.015Z,12.70
2023-05-03T07:30:04.190Z,12.60
2023-05-03T07:31:03.009Z,12.60
2023-05-03T07:32:03.104Z,12.50
2023-05-03T07:33:02.779Z,12.50
2023-05-03T07:34:03.562Z,12.40
2023-05-03T07:35:03.590Z,12.30
2023-05-03T07:36:03.422Z,12.20
2023-05-03T07:37:03.452Z,12.10
2023-05-03T07:38:03.104Z,12.10
2023-05-03T07:39:02.798Z,12.00
2023-05-03T07:40:03.456Z,12.00
2023-05-03T07:41:03.598Z,11.90
2023-05-03T07:42:03.518Z,11.90
2023-05-03T07:43:03.113Z,11.90
2023-05-03T07:44:03.651Z,11.80
2023-05-03T07:45:03.274Z,11.80
2023-05-03T07:46:02.848Z,11.80
2023-05-03T07:47:03.519Z,11.80
2023-05-03T07:48:03.111Z,11.80
2023-05-03T07:49:02.662Z,11.70
2023-05-03T07:50:03.671Z,11.70
2023-05-03T07:51:02.804Z,11.80
2023-05-03T07:52:03.477Z,11.80
2023-05-03T07:53:03.503Z,11.80
2023-05-03T07:54:03.452Z,11.90
2023-05-03T07:55:03.000Z,12.00
2023-05-03T07:56:02.977Z,12.00
2023-05-03T07:57:02.825Z,12.10
2023-05-03T07:58:03.464Z,12.20
2023-05-03T08:00:03.414Z,12.30
2023-05-03T08:01:03.420Z,12.40
2023-05-03T08:02:02.970Z,12.40
2023-05-03T08:03:03.211Z,12.50
2023-05-03T08:04:03.103Z,12.60
2023-05-03T08:05:03.623Z,12.60
2023-05-03T08:06:02.685Z,12.70
2023-05-03T08:07:02.938Z,12.70
2023-05-03T08:08:03.502Z,12.70
2023-05-03T08:09:03.621Z,12.70
2023-05-03T08:10:03.512Z,12.80
2023-05-03T08:11:03.640Z,12.70
2023-05-03T08:12:03.642Z,12.70
2023-05-03T08:13:03.070Z,12.70
2023-05-03T08:14:03.121Z,12.70
2023-05-03T08:15:02.680Z,12.70
2023-05-03T08:16:03.401Z,12.80
2023-05-03T08:17:03.656Z,12.90
2023-05-03T08:18:03.220Z,13.00
2023-05-03T08:19:02.975Z,13.00
2023-05-03T08:20:03.230Z,13.00
2023-05-03T08:21:03.154Z,13.00
2023-05-03T08:22:03.617Z,13.00
2023-05-03T08:23:03.411Z,12.90
2023-05-03T08:24:03.038Z,12.90
2023-05-03T08:25:02.706Z,12.90
2023-05-03T08:26:03.711Z,12.90
2023-05-03T08:27:02.632Z,13.00
2023-05-03T08:28:03.262Z,13.00
2023-05-03T08:29:02.891Z,13.00
2023-05-03T08:30:02.937Z,13.00
2023-05-03T08:31:03.206Z,13.00
2023-05-03T08:32:02.917Z,13.10
2023-05-03T08:33:03.728Z,13.10
2023-05-03T08:34:03.349Z,13.10
2023-05-03T08:35:03.035Z,13.10
2023-05-03T08:36:03.591Z,13.10
2023-05-03T08:37:03.568Z,13.20
2023-05-03T08:38:03.539Z,13.20
2023-05-03T08:39:03.040Z,13.30
2023-05-03T08:40:03.778Z,13.30
2023-05-03T08:41:02.780Z,13.40
2023-05-03T08:42:03.549Z,13.40
2023-05-03T08:43:03.075Z,13.40
2023-05-03T08:44:03.392Z,13.40
2023-05-03T08:45:02.998Z,13.40
2023-05-03T08:46:02.677Z,13.30
2023-05-03T08:47:03.401Z,13.30
2023-05-03T08:48:03.134Z,13.20
2023-05-03T08:49:02.666Z,13.20
2023-05-03T08:50:03.788Z,13.20
2023-05-03T08:51:02.817Z,13.20
2023-05-03T08:52:03.350Z,13.20
2023-05-03T08:53:02.976Z,13.30
2023-05-03T08:54:03.460Z,13.30
2023-05-03T08:55:03.050Z,13.40
2023-05-03T08:56:03.053Z,13.50
2023-05-03T08:57:02.770Z,13.50
2023-05-03T08:58:03.456Z,13.60
2023-05-03T08:59:02.857Z,13.60
2023-05-03T09:00:03.230Z,13.60
2023-05-03T09:01:02.869Z,13.60
2023-05-03T09:02:02.959Z,13.60
2023-05-03T09:03:02.800Z,13.60
2023-05-03T09:04:03.587Z,13.50
2023-05-03T09:05:03.422Z,13.50
2023-05-03T09:06:03.438Z,13.60
2023-05-03T09:07:03.023Z,13.60
2023-05-03T09:08:02.624Z,13.60
2023-05-03T09:09:03.168Z,13.60
2023-05-03T09:10:03.244Z,13.60
2023-05-03T09:11:02.955Z,13.60
2023-05-03T09:12:03.560Z,13.60
2023-05-03T09:13:03.557Z,13.60
2023-05-03T09:14:03.513Z,13.60
2023-05-03T09:15:03.047Z,13.60
2023-05-03T09:16:03.327Z,13.60
2023-05-03T09:17:03.029Z,13.70
2023-05-03T09:18:03.100Z,13.70
2023-05-03T09:19:03.338Z,13.70
2023-05-03T09:20:03.517Z,13.60
2023-05-03T09:21:03.619Z,13.60
2023-05-03T09:22:03.120Z,13.60
2023-05-03T09:23:03.281Z,13.60
2023-05-03T09:24:02.866Z,13.60
2023-05-03T09:25:03.551Z,13.60
2023-05-03T09:26:03.179Z,13.60
2023-05-03T09:27:02.796Z,13.60
2023-05-03T09:28:03.228Z,13.60
2023-05-03T09:29:03.368Z,13.60
2023-05-03T09:30:03.454Z,13.60
2023-05-03T09:31:03.462Z,13.60
2023-05-03T09:32:03.011Z,13.60
2023-05-03T09:33:03.390Z,13.50
2023-05-03T09:34:03.006Z,13.50
2023-05-03T09:35:03.768Z,13.50
2023-05-03T09:36:03.555Z,13.50
2023-05-03T09:37:03.211Z,13.40
2023-05-03T09:38:03.166Z,13.40
2023-05-03T09:39:02.723Z,13.50
2023-05-03T09:40:03.477Z,13.50
2023-05-03T09:41:03.442Z,13.50
2023-05-03T09:42:03.179Z,13.50
2023-05-03T09:43:03.714Z,13.60
2023-05-03T09:44:03.200Z,13.60
2023-05-03T09:45:03.306Z,13.60
2023-05-03T09:46:03.116Z,13.60
2023-05-03T09:47:03.216Z,13.60
2023-05-03T09:48:02.670Z,13.70
2023-05-03T09:49:02.850Z,13.70
2023-05-03T09:50:03.561Z,13.70
2023-05-03T09:51:03.224Z,13.70
2023-05-03T09:52:02.836Z,13.70
2023-05-03T09:53:04.255Z,13.60
2023-05-03T09:54:03.213Z,13.70
2023-05-03T09:55:02.954Z,13.70
2023-05-03T09:56:03.058Z,13.70
2023-05-03T09:57:03.430Z,13.70
2023-05-03T09:58:03.425Z,13.60
2023-05-03T09:59:03.222Z,13.70
2023-05-03T10:00:02.849Z,13.70
2023-05-03T10:01:03.111Z,13.70
2023-05-03T10:02:03.655Z,13.70
2023-05-03T10:03:03.264Z,13.70
2023-05-03T10:04:03.458Z,13.80
2023-05-03T10:05:03.097Z,13.80
2023-05-03T10:06:03.252Z,13.80
2023-05-03T10:07:03.112Z,13.80
2023-05-03T10:08:02.672Z,13.80
2023-05-03T10:09:03.418Z,13.90
2023-05-03T10:10:02.989Z,13.90
2023-05-03T10:11:03.550Z,13.90
2023-05-03T10:12:03.114Z,13.90
2023-05-03T10:13:02.835Z,13.90
2023-05-03T10:14:02.870Z,13.90
2023-05-03T10:15:03.686Z,13.90
2023-05-03T10:16:02.717Z,13.90
2023-05-03T10:17:02.896Z,14.00
2023-05-03T10:18:03.602Z,14.00
2023-05-03T10:19:03.154Z,14.00
2023-05-03T10:20:02.752Z,14.00
2023-05-03T10:21:03.249Z,14.00
2023-05-03T10:22:03.083Z,14.00
2023-05-03T10:23:03.319Z,14.00
2023-05-03T10:24:02.787Z,14.00
2023-05-03T10:25:03.641Z,14.10
2023-05-03T10:26:02.893Z,14.20
2023-05-03T10:27:02.868Z,14.20
2023-05-03T10:28:03.486Z,14.30
2023-05-03T10:29:03.184Z,14.30
2023-05-03T10:30:02.832Z,14.40
2023-05-03T10:31:02.997Z,14.40
2023-05-03T10:32:03.669Z,14.40
2023-05-03T10:33:03.221Z,14.50
2023-05-03T10:34:02.689Z,14.50
2023-05-03T10:35:04.013Z,14.40
2023-05-03T10:36:03.127Z,14.50
2023-05-03T10:37:02.728Z,14.50
2023-05-03T10:38:03.210Z,14.50
2023-05-03T10:39:02.813Z,14.40
2023-05-03T10:40:02.817Z,14.40
2023-05-03T10:41:03.288Z,14.50
2023-05-03T10:42:03.074Z,14.40
2023-05-03T10:43:03.695Z,14.40
2023-05-03T10:44:03.230Z,14.50
2023-05-03T10:45:02.909Z,14.40
2023-05-03T10:46:03.327Z,14.40
2023-05-03T10:47:02.763Z,14.50
2023-05-03T10:48:03.462Z,14.50
2023-05-03T10:49:02.746Z,14.50
2023-05-03T10:50:02.709Z,14.50
2023-05-03T10:51:02.842Z,14.40
2023-05-03T10:52:03.414Z,14.40
2023-05-03T10:53:03.421Z,14.40
2023-05-03T10:54:02.852Z,14.40
2023-05-03T10:55:03.703Z,14.40
2023-05-03T10:56:02.921Z,14.40
2023-05-03T10:57:03.410Z,14.40
2023-05-03T10:58:03.470Z,14.40
2023-05-03T10:59:02.982Z,14.40
2023-05-03T11:00:03.660Z,14.50
2023-05-03T11:01:03.365Z,14.50
2023-05-03T11:02:03.606Z,14.50
2023-05-03T11:03:03.184Z,14.60
2023-05-03T11:04:03.271Z,14.60
2023-05-03T11:05:03.383Z,14.60
2023-05-03T11:06:03.071Z,14.60
2023-05-03T11:07:03.267Z,14.60
2023-05-03T11:08:02.894Z,14.60
2023-05-03T11:09:02.626Z,14.60
2023-05-03T11:10:03.458Z,14.60
2023-05-03T11:11:02.822Z,14.60
2023-05-03T11:12:02.627Z,14.60
2023-05-03T11:13:03.444Z,14.60
2023-05-03T11:14:03.481Z,14.60
2023-05-03T11:15:03.433Z,14.60
2023-05-03T11:16:03.619Z,14.60
2023-05-03T11:17:03.580Z,14.60
2023-05-03T11:18:03.153Z,14.60
2023-05-03T11:19:02.842Z,14.70
2023-05-03T11:20:03.424Z,14.70
2023-05-03T11:21:03.120Z,14.70
2023-05-03T11:22:03.633Z,14.70
2023-05-03T11:23:03.244Z,14.80
2023-05-03T11:24:03.188Z,14.70
2023-05-03T11:25:03.256Z,14.70
2023-05-03T11:26:03.385Z,14.70
2023-05-03T11:27:07.926Z,14.70
2023-05-03T11:28:02.752Z,14.70
2023-05-03T11:29:02.777Z,14.70
2023-05-03T11:30:03.243Z,14.70
2023-05-03T11:31:02.815Z,14.70
2023-05-03T11:32:03.503Z,14.80
2023-05-03T11:33:03.103Z,14.80
2023-05-03T11:34:02.694Z,14.80
2023-05-03T11:35:02.900Z,14.80
2023-05-03T11:36:03.605Z,14.90
2023-05-03T11:37:03.257Z,14.90
2023-05-03T11:38:02.792Z,15.00
2023-05-03T11:39:02.872Z,15.00
2023-05-03T11:40:03.742Z,15.10
2023-05-03T11:41:03.315Z,15.10
2023-05-03T11:42:02.739Z,15.20
2023-05-03T11:43:03.339Z,15.10
2023-05-03T11:44:14.826Z,15.20
2023-05-03T11:45:03.714Z,15.20
2023-05-03T11:46:03.165Z,15.20
2023-05-03T11:47:03.230Z,15.20
2023-05-03T11:48:03.422Z,15.20
2023-05-03T11:49:03.208Z,15.30
2023-05-03T11:50:03.387Z,15.30
2023-05-03T11:51:02.923Z,15.30
2023-05-03T11:52:03.438Z,15.30
2023-05-03T11:53:02.975Z,15.30
2023-05-03T11:54:10.126Z,15.40
2023-05-03T11:55:02.890Z,15.40
2023-05-03T11:56:03.197Z,15.40
2023-05-03T11:57:03.329Z,15.40
2023-05-03T11:58:03.331Z,15.30
2023-05-03T11:59:02.869Z,15.40
2023-05-03T12:00:03.423Z,15.40
2023-05-03T12:01:03.450Z,15.40
2023-05-03T12:02:03.218Z,15.40
2023-05-03T12:03:03.097Z,15.40
2023-05-03T12:04:03.286Z,15.40
2023-05-03T12:05:03.745Z,15.40
2023-05-03T12:06:04.645Z,15.40
2023-05-03T12:07:03.710Z,15.40
2023-05-03T12:08:03.591Z,15.40
2023-05-03T12:09:03.224Z,15.40
2023-05-03T12:11:03.770Z,15.30
2023-05-03T12:12:05.350Z,15.30
2023-05-03T12:13:05.015Z,15.30
2023-05-03T12:14:03.300Z,15.30
2023-05-03T12:15:04.438Z,15.30
2023-05-03T12:16:11.452Z,15.30
2023-05-03T12:17:02.961Z,15.30
2023-05-03T12:18:04.553Z,15.30
2023-05-03T12:19:03.567Z,15.20
2023-05-03T12:23:04.118Z,15.20
2023-05-03T12:24:04.741Z,15.20
2023-05-03T12:25:04.279Z,15.20
2023-05-03T12:26:05.137Z,15.20
2023-05-03T12:27:03.330Z,15.20
2023-05-03T12:28:18.410Z,15.30
2023-05-03T12:29:02.866Z,15.30
2023-05-03T12:30:03.266Z,15.30
2023-05-03T12:31:04.952Z,15.30
2023-05-03T12:32:02.770Z,15.30
2023-05-03T12:33:04.758Z,15.30
2023-05-03T12:34:25.222Z,15.30
2023-05-03T12:35:03.038Z,15.20
2023-05-03T12:36:04.372Z,15.30
2023-05-03T12:37:04.338Z,15.30
2023-05-03T12:38:03.072Z,15.20
2023-05-03T12:39:03.025Z,15.30
2023-05-03T12:40:24.716Z,15.20
2023-05-03T12:41:03.448Z,15.30
2023-05-03T12:42:06.625Z,15.20
2023-05-03T12:43:03.370Z,15.20
2023-05-03T12:44:02.881Z,15.20
2023-05-03T12:45:04.851Z,15.20
2023-05-03T12:47:03.188Z,15.20
2023-05-03T12:48:03.743Z,15.20
2023-05-03T12:49:06.466Z,15.20
2023-05-03T12:50:06.014Z,15.20
2023-05-03T12:51:18.225Z,15.20
2023-05-03T12:53:03.062Z,15.20
2023-05-03T12:54:02.938Z,15.20
2023-05-03T12:55:03.955Z,15.20
2023-05-03T12:56:05.391Z,15.30
2023-05-03T12:57:07.826Z,15.30
2023-05-03T12:59:30.850Z,15.30
2023-05-03T13:00:04.369Z,15.30
2023-05-03T13:01:37.728Z,15.30
2023-05-03T13:02:41.518Z,15.40
2023-05-03T13:05:11.198Z,15.40
2023-05-03T13:06:09.846Z,15.40
2023-05-03T13:07:03.020Z,15.40
2023-05-03T13:08:08.434Z,15.50
2023-05-03T13:09:03.801Z,15.50
2023-05-03T13:11:02.829Z,15.50
2023-05-03T13:12:03.191Z,15.40
2023-05-03T13:13:02.918Z,15.40
2023-05-03T13:14:03.463Z,15.40